createdAt,value
2019-03-26T00:00:26.083Z,8.70
2019-03-26T00:03:13.883Z,13.30
2019-03-26T00:06:01.696Z,7.67
2019-03-26T00:08:49.486Z,11.10
2019-03-26T00:11:37.426Z,13.23
2019-03-26T00:14:25.240Z,12.47
2019-03-26T00:17:13.006Z,15.00
2019-03-26T00:20:21.563Z,4.63
2019-03-26T00:23:09.413Z,10.70
2019-03-26T00:25:57.191Z,15.20
2019-03-26T00:28:44.978Z,10.80
2019-03-26T00:31:32.741Z,8.00
2019-03-26T00:37:40.459Z,16.27
2019-03-26T00:40:40.158Z,11.73
2019-03-26T00:43:27.531Z,5.63
2019-03-26T00:46:15.337Z,5.97
2019-03-26T00:49:03.446Z,5.27
2019-03-26T00:51:51.233Z,3.70
2019-03-26T00:54:39.034Z,13.63
2019-03-26T00:57:26.826Z,12.17
2019-03-26T01:00:15.026Z,11.57
2019-03-26T01:03:02.818Z,7.03
2019-03-26T01:05:50.682Z,13.90
2019-03-26T01:08:38.451Z,16.40
2019-03-26T01:11:26.241Z,8.07
2019-03-26T01:14:16.344Z,7.13
2019-03-26T01:16:56.853Z,11.13
2019-03-26T01:19:37.766Z,13.13
2019-03-26T01:22:18.684Z,11.70
2019-03-26T01:24:59.522Z,11.60
2019-03-26T01:27:40.305Z,9.20
2019-03-26T01:30:21.097Z,16.40
2019-03-26T01:33:01.508Z,17.40
2019-03-26T01:35:42.081Z,14.27
2019-03-26T01:38:22.762Z,7.60
2019-03-26T01:41:03.398Z,13.50
2019-03-26T01:43:31.858Z,12.10
2019-03-26T01:46:19.923Z,17.30
2019-03-26T01:49:07.714Z,11.03
2019-03-26T01:51:55.480Z,6.33
2019-03-26T01:55:04.007Z,15.13
2019-03-26T01:57:51.778Z,14.50
2019-03-26T02:00:39.637Z,9.47
2019-03-26T02:03:27.406Z,17.17
2019-03-26T02:06:15.242Z,15.33
2019-03-26T02:11:58.026Z,16.07
2019-03-26T02:14:26.501Z,16.93
2019-03-26T02:17:14.278Z,20.27
2019-03-26T02:20:02.083Z,16.27
2019-03-26T02:22:49.910Z,18.40
2019-03-26T02:25:37.755Z,18.03
2019-03-26T02:28:25.559Z,19.57
2019-03-26T02:31:13.444Z,16.87
2019-03-26T02:34:01.271Z,19.70
2019-03-26T02:36:49.059Z,14.67
2019-03-26T02:39:17.514Z,20.43
2019-03-26T02:41:57.898Z,20.70
2019-03-26T02:44:26.373Z,19.23
2019-03-26T02:47:14.203Z,21.97
2019-03-26T02:50:02.265Z,18.90
2019-03-26T02:52:50.078Z,17.47
2019-03-26T02:55:38.266Z,17.97
2019-03-26T02:58:19.240Z,20.50
2019-03-26T03:01:00.011Z,22.37
2019-03-26T03:03:40.326Z,16.33
2019-03-26T03:06:21.117Z,21.53
2019-03-26T03:09:01.647Z,17.53
2019-03-26T03:11:42.536Z,16.13
2019-03-26T03:14:24.188Z,19.50
2019-03-26T03:17:04.983Z,16.70
2019-03-26T03:19:33.412Z,22.87
2019-03-26T03:22:21.211Z,15.93
2019-03-26T03:25:09.370Z,23.00
2019-03-26T03:27:57.494Z,18.23
2019-03-26T03:30:45.403Z,18.87
2019-03-26T03:33:13.960Z,21.80
2019-03-26T03:36:02.097Z,14.77
2019-03-26T03:38:49.956Z,21.37
2019-03-26T03:41:38.048Z,19.67
2019-03-26T03:44:25.844Z,15.83
2019-03-26T03:47:13.768Z,14.40
2019-03-26T03:50:01.678Z,18.90
2019-03-26T03:52:49.538Z,14.43
2019-03-26T03:55:37.593Z,17.40
2019-03-26T03:58:18.183Z,25.43
2019-03-26T04:00:46.618Z,21.97
2019-03-26T04:03:34.704Z,23.03
2019-03-26T04:06:09.667Z,17.27
2019-03-26T04:08:53.034Z,16.50
2019-03-26T04:11:41.138Z,21.90
2019-03-26T04:14:09.617Z,24.10
2019-03-26T04:16:57.407Z,17.93
2019-03-26T04:19:45.269Z,15.67
2019-03-26T04:22:33.303Z,17.43
2019-03-26T04:25:21.088Z,15.60
2019-03-26T04:28:08.870Z,25.10
2019-03-26T04:30:57.015Z,19.23
2019-03-26T04:33:44.786Z,19.20
2019-03-26T04:36:32.634Z,20.63
2019-03-26T04:39:20.425Z,20.63
2019-03-26T04:42:08.210Z,21.73
2019-03-26T04:44:56.013Z,22.93
2019-03-26T04:47:43.817Z,19.87
2019-03-26T04:50:12.312Z,20.63
2019-03-26T04:53:00.113Z,20.60
2019-03-26T04:55:48.126Z,9.40
2019-03-26T04:58:16.586Z,18.40
2019-03-26T05:01:04.364Z,18.80
2019-03-26T05:03:32.789Z,13.97
2019-03-26T05:06:20.600Z,21.97
2019-03-26T05:09:08.368Z,16.97
2019-03-26T05:11:56.157Z,24.37
2019-03-26T05:14:43.937Z,19.13
2019-03-26T05:17:31.725Z,12.60
2019-03-26T05:20:19.928Z,13.43
2019-03-26T05:23:08.013Z,18.23
2019-03-26T05:25:55.807Z,10.37
2019-03-26T05:28:43.569Z,11.20
2019-03-26T05:31:31.366Z,7.67
2019-03-26T05:34:19.135Z,9.50
2019-03-26T05:37:06.925Z,10.87
2019-03-26T05:39:54.727Z,13.23
2019-03-26T05:42:42.526Z,8.60
2019-03-26T05:45:30.326Z,11.83
2019-03-26T05:48:18.366Z,11.80
2019-03-26T05:51:06.133Z,12.27
2019-03-26T05:53:54.312Z,16.90
2019-03-26T05:56:42.347Z,17.77
2019-03-26T05:59:23.318Z,15.43
2019-03-26T06:02:14.149Z,7.37
2019-03-26T06:04:46.945Z,15.73
2019-03-26T06:07:31.164Z,14.00
2019-03-26T06:10:10.578Z,16.30
2019-03-26T06:12:51.051Z,15.40
2019-03-26T06:15:31.546Z,12.93
2019-03-26T06:18:12.335Z,16.90
2019-03-26T06:20:52.767Z,13.63
2019-03-26T06:23:33.981Z,13.57
2019-03-26T06:26:14.783Z,11.90
2019-03-26T06:28:56.023Z,10.77
2019-03-26T06:31:37.073Z,14.47
2019-03-26T06:34:17.609Z,11.00
2019-03-26T06:36:58.778Z,8.97
2019-03-26T06:39:39.411Z,16.67
2019-03-26T06:42:20.021Z,13.73
2019-03-26T06:45:00.466Z,13.50
2019-03-26T06:47:41.194Z,11.03
2019-03-26T06:50:21.493Z,11.50
2019-03-26T06:53:01.943Z,8.73
2019-03-26T06:55:42.394Z,9.10
2019-03-26T06:58:22.797Z,17.27
2019-03-26T07:01:03.314Z,12.17
2019-03-26T07:03:43.922Z,8.50
2019-03-26T07:06:24.849Z,13.27
2019-03-26T07:09:05.814Z,15.77
2019-03-26T07:11:46.609Z,14.07
2019-03-26T07:14:27.378Z,8.53
2019-03-26T07:17:08.070Z,12.00
2019-03-26T07:19:48.886Z,8.77
2019-03-26T07:22:29.570Z,6.90
2019-03-26T07:25:10.109Z,7.97
2019-03-26T07:27:50.798Z,12.43
2019-03-26T07:30:31.366Z,14.27
2019-03-26T07:33:12.428Z,13.77
2019-03-26T07:35:53.278Z,13.10
2019-03-26T07:38:34.053Z,10.27
2019-03-26T07:41:02.504Z,9.53
2019-03-26T07:43:50.288Z,11.97
2019-03-26T07:46:38.398Z,11.30
2019-03-26T07:49:45.490Z,10.27
2019-03-26T07:52:33.287Z,15.43
2019-03-26T07:55:21.080Z,11.47
2019-03-26T07:58:08.911Z,13.30
2019-03-26T08:00:49.277Z,19.03
2019-03-26T08:03:30.351Z,5.70
2019-03-26T08:06:11.158Z,5.97
2019-03-26T08:08:51.777Z,12.53
2019-03-26T08:11:32.293Z,13.77
2019-03-26T08:14:12.995Z,11.37
2019-03-26T08:16:41.488Z,15.83
2019-03-26T08:19:29.301Z,8.33
2019-03-26T08:22:17.101Z,10.37
2019-03-26T08:25:25.847Z,13.37
2019-03-26T08:28:13.891Z,11.60
2019-03-26T08:31:01.930Z,7.20
2019-03-26T08:33:49.723Z,9.50
2019-03-26T08:36:37.513Z,5.47
2019-03-26T08:39:25.293Z,5.07
2019-03-26T08:41:53.730Z,9.97
2019-03-26T08:44:41.530Z,8.03
2019-03-26T08:47:29.302Z,12.97
2019-03-26T08:50:17.435Z,7.27
2019-03-26T08:53:05.264Z,9.53
2019-03-26T08:55:53.061Z,15.77
2019-03-26T08:58:21.491Z,9.07
2019-03-26T09:01:09.291Z,10.07
2019-03-26T09:03:50.038Z,6.67
2019-03-26T09:06:30.811Z,14.17
2019-03-26T09:09:11.568Z,8.93
2019-03-26T09:11:53.067Z,12.80
2019-03-26T09:14:33.762Z,6.00
2019-03-26T09:17:14.697Z,7.03
2019-03-26T09:19:55.964Z,5.80
2019-03-26T09:22:37.155Z,9.13
2019-03-26T09:25:45.701Z,7.80
2019-03-26T09:28:33.801Z,7.20
2019-03-26T09:31:21.569Z,6.77
2019-03-26T09:34:10.061Z,4.30
2019-03-26T09:36:58.863Z,4.20
2019-03-26T09:39:46.907Z,4.50
2019-03-26T09:42:34.702Z,5.20
2019-03-26T09:48:17.818Z,8.23
2019-03-26T09:51:05.648Z,7.87
2019-03-26T09:53:53.408Z,7.30
2019-03-26T09:56:41.558Z,10.03
2019-03-26T09:59:29.333Z,9.13
2019-03-26T10:02:10.401Z,5.50
2019-03-26T10:04:51.254Z,7.23
2019-03-26T10:07:31.680Z,6.30
2019-03-26T10:10:12.555Z,4.03
2019-03-26T10:12:53.757Z,5.10
2019-03-26T10:15:22.213Z,7.57
2019-03-26T10:18:10.006Z,8.57
2019-03-26T10:20:58.232Z,6.77
2019-03-26T10:23:45.990Z,4.47
2019-03-26T10:26:34.055Z,8.93
2019-03-26T10:29:30.151Z,9.53
2019-03-26T10:31:52.027Z,4.47
2019-03-26T10:34:39.893Z,5.50
2019-03-26T10:37:27.660Z,6.33
2019-03-26T10:40:36.218Z,6.07
2019-03-26T10:43:24.005Z,6.57
2019-03-26T10:46:12.113Z,6.83
2019-03-26T10:48:59.901Z,6.10
2019-03-26T10:51:47.985Z,4.13
2019-03-26T10:54:35.769Z,2.97
2019-03-26T10:57:23.577Z,4.20
2019-03-26T11:00:12.022Z,4.33
2019-03-26T11:02:54.108Z,3.97
2019-03-26T11:05:35.017Z,5.63
2019-03-26T11:08:03.579Z,7.53
2019-03-26T11:10:51.363Z,2.83
2019-03-26T11:13:20.041Z,5.50
2019-03-26T11:16:07.846Z,4.43
2019-03-26T11:18:55.610Z,4.47
2019-03-26T11:21:43.486Z,4.77
2019-03-26T11:24:31.267Z,7.13
2019-03-26T11:27:19.365Z,3.53
2019-03-26T11:30:07.629Z,7.33
2019-03-26T11:32:36.150Z,3.70
2019-03-26T11:35:23.920Z,4.73
2019-03-26T11:38:11.709Z,3.30
2019-03-26T11:40:59.759Z,2.83
2019-03-26T11:43:47.541Z,3.90
2019-03-26T11:46:35.342Z,3.10
2019-03-26T11:49:23.406Z,2.70
2019-03-26T11:52:11.548Z,6.63
2019-03-26T11:54:59.329Z,4.50
2019-03-26T11:57:47.428Z,7.43
2019-03-26T12:03:04.696Z,3.40
2019-03-26T12:05:45.553Z,4.43
2019-03-26T12:08:26.670Z,6.20
2019-03-26T12:11:07.434Z,9.40
2019-03-26T12:13:48.737Z,9.27
2019-03-26T12:16:29.601Z,3.40
2019-03-26T12:19:10.603Z,8.90
2019-03-26T12:21:51.719Z,9.07
2019-03-26T12:24:32.646Z,4.27
2019-03-26T12:27:13.258Z,3.17
2019-03-26T12:29:54.294Z,4.60
2019-03-26T12:32:35.426Z,5.90
2019-03-26T12:35:16.011Z,6.80
2019-03-26T12:37:44.490Z,5.03
2019-03-26T12:40:32.373Z,2.23
2019-03-26T12:43:20.224Z,3.30
2019-03-26T12:46:08.161Z,3.00
2019-03-26T12:48:55.950Z,3.30
2019-03-26T12:51:44.341Z,4.47
2019-03-26T12:54:32.150Z,4.87
2019-03-26T12:57:20.211Z,6.30
2019-03-26T13:00:28.704Z,5.53
2019-03-26T13:03:10.171Z,5.07
2019-03-26T13:05:51.082Z,5.07
2019-03-26T13:08:33.201Z,7.20
2019-03-26T13:11:16.937Z,3.13
2019-03-26T13:13:56.187Z,6.03
2019-03-26T13:16:36.805Z,8.97
2019-03-26T13:19:17.625Z,5.80
2019-03-26T13:21:58.155Z,3.37
2019-03-26T13:24:39.307Z,5.47
2019-03-26T13:27:20.311Z,3.80
2019-03-26T13:30:00.951Z,5.33
2019-03-26T13:32:42.864Z,4.50
2019-03-26T13:35:23.800Z,7.47
2019-03-26T13:38:04.080Z,4.63
2019-03-26T13:40:44.866Z,6.50
2019-03-26T13:43:27.531Z,6.20
2019-03-26T13:46:08.490Z,5.40
2019-03-26T13:48:49.554Z,7.73
2019-03-26T13:51:30.144Z,4.67
2019-03-26T13:54:10.952Z,6.23
2019-03-26T13:56:39.398Z,8.87
2019-03-26T13:59:27.223Z,6.70
2019-03-26T14:02:15.025Z,9.30
2019-03-26T14:04:56.165Z,8.23
2019-03-26T14:07:37.275Z,7.20
2019-03-26T14:10:18.307Z,5.63
2019-03-26T14:12:58.781Z,5.53
2019-03-26T14:15:39.162Z,7.93
2019-03-26T14:18:20.112Z,11.77
2019-03-26T14:21:00.551Z,6.57
2019-03-26T14:23:42.023Z,7.73
2019-03-26T14:26:23.093Z,8.87
2019-03-26T14:29:04.098Z,9.10
2019-03-26T14:31:44.972Z,13.07
2019-03-26T14:34:25.876Z,6.17
2019-03-26T14:37:07.009Z,8.53
2019-03-26T14:39:47.844Z,7.30
2019-03-26T14:42:28.990Z,5.90
2019-03-26T14:45:09.597Z,8.33
2019-03-26T14:47:50.382Z,5.47
2019-03-26T14:50:30.928Z,6.70
2019-03-26T14:53:11.670Z,7.80
2019-03-26T14:55:52.428Z,5.93
2019-03-26T14:58:21.243Z,7.07
2019-03-26T15:01:09.014Z,10.00
2019-03-26T15:03:37.552Z,6.77
2019-03-26T15:06:25.325Z,7.83
2019-03-26T15:09:13.099Z,9.27
2019-03-26T15:12:01.182Z,9.07
2019-03-26T15:14:48.969Z,9.30
2019-03-26T15:17:36.761Z,8.73
2019-03-26T15:20:36.742Z,9.43
2019-03-26T15:23:14.063Z,9.83
2019-03-26T15:26:02.193Z,8.13
2019-03-26T15:28:50.054Z,7.43
2019-03-26T15:31:38.060Z,8.20
2019-03-26T15:34:35.621Z,6.77
2019-03-26T15:37:15.690Z,23.50
2019-03-26T15:40:04.655Z,6.07
2019-03-26T15:42:33.191Z,5.03
2019-03-26T15:45:21.389Z,5.53
2019-03-26T15:48:09.218Z,7.93
2019-03-26T15:50:57.013Z,4.87
2019-03-26T15:53:44.781Z,5.40
2019-03-26T15:56:32.996Z,4.07
2019-03-26T15:59:21.149Z,3.97
2019-03-26T16:02:08.934Z,10.70
2019-03-26T16:04:56.839Z,2.90
2019-03-26T16:07:44.605Z,2.57
2019-03-26T16:10:32.389Z,2.67
2019-03-26T16:13:20.442Z,3.20
2019-03-26T16:16:08.210Z,2.33
2019-03-26T16:18:56.237Z,3.63
2019-03-26T16:21:44.110Z,2.57
2019-03-26T16:24:33.523Z,2.80
2019-03-26T16:27:21.292Z,1.83
2019-03-26T16:30:09.348Z,1.87
2019-03-26T16:32:50.744Z,4.07
2019-03-26T16:35:31.477Z,1.90
2019-03-26T16:37:59.909Z,5.77
2019-03-26T16:40:47.707Z,3.20
2019-03-26T16:43:35.494Z,10.43
2019-03-26T16:46:23.293Z,3.93
2019-03-26T16:49:11.364Z,3.00
2019-03-26T16:51:59.145Z,1.53
2019-03-26T16:54:47.186Z,2.53
2019-03-26T16:57:34.969Z,3.57
2019-03-26T17:03:31.874Z,2.47
2019-03-26T17:06:20.647Z,4.13
2019-03-26T17:09:08.454Z,2.30
2019-03-26T17:12:02.970Z,2.90
2019-03-26T17:14:46.182Z,1.67
2019-03-26T17:17:33.976Z,2.07
2019-03-26T17:20:23.985Z,4.47
2019-03-26T17:23:11.262Z,3.30
2019-03-26T17:25:59.055Z,1.80
2019-03-26T17:28:46.821Z,3.10
2019-03-26T17:31:29.656Z,2.53
2019-03-26T17:34:10.333Z,5.80
2019-03-26T17:36:38.774Z,1.97
2019-03-26T17:39:26.549Z,2.57
2019-03-26T17:42:17.581Z,1.70
2019-03-26T17:45:04.640Z,2.43
2019-03-26T17:47:33.054Z,2.50
2019-03-26T17:50:20.854Z,3.40
2019-03-26T17:53:08.734Z,2.50
2019-03-26T17:55:37.170Z,1.53
2019-03-26T17:58:24.938Z,2.20
2019-03-26T18:01:12.727Z,2.97
2019-03-26T18:04:00.514Z,3.00
2019-03-26T18:06:48.659Z,1.63
2019-03-26T18:09:36.798Z,2.23
2019-03-26T18:12:30.814Z,3.27
2019-03-26T18:15:14.834Z,4.40
2019-03-26T18:18:02.702Z,1.67
2019-03-26T18:20:32.802Z,1.37
2019-03-26T18:23:13.158Z,5.30
2019-03-26T18:25:53.936Z,3.60
2019-03-26T18:28:34.572Z,4.07
2019-03-26T18:31:15.790Z,3.53
2019-03-26T18:33:56.454Z,4.87
2019-03-26T18:36:37.353Z,7.47
2019-03-26T18:39:18.398Z,2.07
2019-03-26T18:41:58.845Z,2.53
2019-03-26T18:44:39.475Z,1.63
2019-03-26T18:47:20.029Z,2.73
2019-03-26T18:50:01.133Z,8.87
2019-03-26T18:52:42.039Z,5.93
2019-03-26T18:55:25.247Z,4.33
2019-03-26T18:58:06.091Z,2.70
2019-03-26T19:00:47.045Z,6.83
2019-03-26T19:03:27.747Z,8.03
2019-03-26T19:06:08.196Z,9.47
2019-03-26T19:08:48.869Z,6.43
2019-03-26T19:11:29.558Z,7.63
2019-03-26T19:14:10.154Z,3.03
2019-03-26T19:16:50.885Z,7.07
2019-03-26T19:19:31.614Z,9.53
2019-03-26T19:22:12.427Z,10.20
2019-03-26T19:24:53.358Z,6.97
2019-03-26T19:27:33.769Z,6.73
2019-03-26T19:30:02.198Z,9.17
2019-03-26T19:32:50.277Z,3.33
2019-03-26T19:35:38.422Z,10.30
2019-03-26T19:38:26.221Z,8.17
2019-03-26T19:41:14.015Z,16.53
2019-03-26T19:44:01.812Z,10.93
2019-03-26T19:46:49.788Z,11.90
2019-03-26T19:49:38.135Z,18.87
2019-03-26T19:52:28.293Z,11.23
2019-03-26T19:55:16.181Z,17.47
2019-03-26T19:58:04.056Z,19.47
2019-03-26T20:00:51.863Z,16.20
2019-03-26T20:03:33.183Z,5.10
2019-03-26T20:06:14.222Z,12.93
2019-03-26T20:08:55.629Z,17.87
2019-03-26T20:11:37.210Z,15.10
2019-03-26T20:14:18.113Z,18.23
2019-03-26T20:16:58.790Z,18.10
2019-03-26T20:19:39.498Z,18.20
2019-03-26T20:22:20.345Z,21.20
2019-03-26T20:25:01.401Z,20.13
2019-03-26T20:27:42.390Z,18.67
2019-03-26T20:30:23.771Z,18.83
2019-03-26T20:33:06.386Z,16.87
2019-03-26T20:35:47.083Z,18.20
2019-03-26T20:38:28.266Z,22.13
2019-03-26T20:41:08.817Z,17.00
2019-03-26T20:43:49.594Z,16.37
2019-03-26T20:46:18.016Z,10.87
2019-03-26T20:49:05.798Z,17.57
2019-03-26T20:51:53.672Z,15.97
2019-03-26T20:54:41.477Z,19.57
2019-03-26T20:57:29.283Z,16.97
2019-03-26T20:59:58.053Z,13.90
2019-03-26T21:02:45.832Z,19.67
2019-03-26T21:05:33.693Z,19.93
2019-03-26T21:08:14.882Z,18.83
2019-03-26T21:10:56.090Z,19.93
2019-03-26T21:13:49.957Z,19.63
2019-03-26T21:16:19.245Z,23.77
2019-03-26T21:19:00.065Z,19.07
2019-03-26T21:21:41.360Z,16.63
2019-03-26T21:24:22.090Z,22.57
2019-03-26T21:27:03.429Z,18.73
2019-03-26T21:29:43.982Z,15.07
2019-03-26T21:32:26.589Z,21.37
2019-03-26T21:35:07.393Z,19.70
2019-03-26T21:37:48.647Z,18.03
2019-03-26T21:40:29.334Z,22.90
2019-03-26T21:43:09.924Z,6.20
2019-03-26T21:45:50.605Z,23.50
2019-03-26T21:48:31.243Z,20.17
2019-03-26T21:51:12.222Z,18.03
2019-03-26T21:53:52.651Z,20.47
2019-03-26T21:56:33.403Z,18.13
2019-03-26T21:59:14.382Z,22.33
2019-03-26T22:01:55.597Z,19.43
2019-03-26T22:04:24.043Z,19.87
2019-03-26T22:07:12.250Z,20.37
2019-03-26T22:09:53.246Z,14.27
2019-03-26T22:12:34.206Z,21.47
2019-03-26T22:15:15.218Z,17.43
2019-03-26T22:17:55.753Z,16.20
2019-03-26T22:20:36.814Z,21.27
2019-03-26T22:23:17.614Z,18.10
2019-03-26T22:25:58.339Z,16.83
2019-03-26T22:28:26.770Z,17.67
2019-03-26T22:31:14.577Z,16.47
2019-03-26T22:34:02.424Z,18.67
2019-03-26T22:36:50.271Z,21.60
2019-03-26T22:39:38.042Z,20.73
2019-03-26T22:42:26.112Z,23.93
2019-03-26T22:45:14.047Z,14.40
2019-03-26T22:48:02.103Z,18.23
2019-03-26T22:50:49.865Z,9.70
2019-03-26T22:53:37.677Z,18.83
2019-03-26T22:56:25.446Z,17.07
2019-03-26T22:58:54.217Z,15.93
2019-03-26T23:01:42.017Z,11.93
2019-03-26T23:04:29.830Z,7.30
2019-03-26T23:07:17.605Z,12.40
2019-03-26T23:09:58.653Z,15.83
2019-03-26T23:12:39.354Z,21.30
2019-03-26T23:15:20.417Z,8.90
2019-03-26T23:18:01.399Z,16.80
2019-03-26T23:20:42.650Z,14.83
2019-03-26T23:23:23.176Z,18.43
2019-03-26T23:26:03.706Z,14.20
2019-03-26T23:28:44.382Z,5.87
2019-03-26T23:31:25.005Z,14.93
2019-03-26T23:34:05.559Z,14.33
2019-03-26T23:36:46.706Z,14.93
2019-03-26T23:39:27.784Z,15.50
2019-03-26T23:42:08.210Z,11.10
2019-03-26T23:44:58.149Z,16.40
2019-03-26T23:47:31.753Z,14.23
2019-03-26T23:50:00.252Z,16.07
2019-03-26T23:52:48.154Z,12.90
2019-03-26T23:55:35.944Z,13.20
2019-03-26T23:58:23.714Z,18.37
